CSAV Lonquen — A8OT2 — position and weather

sailwx.info

Track history (hours):
 
Tides and Currents Weather Stations Pressure Air Temp Water Temp Dewpoint Dewpoint Depression Visibility Wind Speed Wind Dir Waves Ship Positions

CSAV Lonquen

Last reported at 2014-Jul-29 03:32 UTC. Time now 2014-Jul-30 04:59 UTC.
Position N 40°05' W 009°49'.

Length 261 m; draft 8.8 m.

Type: Ship (hazmat cat A). MMSI: 636091501.

Date/timePositionNaut miles runAvg speedWind from/ knotsBaromVisibWave heightAir tempDewpointWater temp
2014-Jul-29 03:32N 40°05' W 009°49'3014.5
2014-Jul-29 01:29N 39°35' W 009°50'1414.8
2014-Jul-29 00:32N 39°21' W 009°50'6115.3
2014-Jul-28 20:33N 38°21' W 009°44'1615.6
2014-Jul-28 19:33N 38°05' W 009°40'1515.3
2014-Jul-28 18:33N 37°50' W 009°36'1615.7
2014-Jul-28 17:33N 37°35' W 009°31'1716.5
2014-Jul-28 16:30N 37°18' W 009°27'1716.1
2014-Jul-28 15:25N 37°01' W 009°22'1415.6
2014-Jul-28 14:31N 36°49' W 009°14'1815.9
2014-Jul-28 13:22N 36°41' W 008°53'1515.9
2014-Jul-28 12:24N 36°36' W 008°35'1416.2
2014-Jul-28 11:31N 36°31' W 008°19'14415.6
2014-Jul-28 02:19N 36°02' W 005°24'4 0.3
2014-Jul-27 10:32N 36°04' W 005°19'46513.3
2014-Jul-25 23:32N 37°13' E 004°14'1313.5
2014-Jul-25 22:32N 37°15' E 004°30'1313.7
2014-Jul-25 21:33N 37°17' E 004°47'1413.8
2014-Jul-25 20:33N 37°19' E 005°04'2015.2
2014-Jul-25 19:15N 37°22' E 005°29'710.6
2014-Jul-25 18:33N 37°23' E 005°38'1413.6
2014-Jul-25 17:33N 37°25' E 005°55'10314.3
2014-Jul-25 10:22N 37°41' E 008°03'1414.0
2014-Jul-25 09:24N 37°43' E 008°20'1214.5
2014-Jul-25 08:33N 37°44' E 008°36'1414.2
2014-Jul-25 07:33N 37°44' E 008°53'1414.2
2014-Jul-25 06:32N 37°42' E 009°11'1414.0
2014-Jul-25 05:33N 37°41' E 009°29'1413.8
2014-Jul-25 04:33N 37°41' E 009°46'1413.8
2014-Jul-25 03:33N 37°39' E 010°04'1413.6
2014-Jul-25 02:33N 37°39' E 010°21'1414.4
2014-Jul-25 01:33N 37°35' E 010°38'1414.6
2014-Jul-25 00:33N 37°31' E 010°56'6014.6
2014-Jul-24 20:25N 37°03' E 012°04'1214.4
2014-Jul-24 19:33N 36°59' E 012°18'1413.8
2014-Jul-24 18:33N 36°55' E 012°35'1414.2
2014-Jul-24 17:33N 36°51' E 012°52'1414.4
2014-Jul-24 16:33N 36°46' E 013°09'1414.5
2014-Jul-24 15:33N 36°42' E 013°26'1414.3
2014-Jul-24 14:33N 36°37' E 013°43'1414.3
2014-Jul-24 13:33N 36°33' E 013°60'1616.3
2014-Jul-24 12:33N 36°29' E 014°19'2222.2
2014-Jul-24 11:33N 36°21' E 014°45'63615.1
2014-Jul-22 17:24N 33°03' E 027°01'  
2014-Jul-20 11:17N 34°09' E 033°56'1 1.1
2014-Jul-20 10:33N 34°10' E 033°57'2 1.9
2014-Jul-20 09:34N 34°09' E 033°55'2 1.8
2014-Jul-20 08:33N 34°08' E 033°53'2 1.8
2014-Jul-20 07:34N 34°07' E 033°51'11 4.8
2014-Jul-20 05:19N 34°16' E 033°58'7 9.2
2014-Jul-20 04:33N 34°22' E 034°02'  
Track history (hours):
 
Tides and Currents Weather Stations Pressure Air Temp Water Temp Dewpoint Dewpoint Depression Visibility Wind Speed Wind Dir Waves Ship Positions

CSAV Lonquen

Last reported at 2014-Jul-29 03:32 UTC. Time now 2014-Jul-30 04:59 UTC.
Position N 40°05' W 009°49'.

Length 261 m; draft 8.8 m.

Type: Ship (hazmat cat A). MMSI: 636091501.

Date/timePositionNaut miles runAvg speedWind from/ knotsBaromVisibWave heightAir tempDewpointWater temp
2014-Jul-29 03:32N 40°05' W 009°49'3014.5
2014-Jul-29 01:29N 39°35' W 009°50'1414.8
2014-Jul-29 00:32N 39°21' W 009°50'6115.3
2014-Jul-28 20:33N 38°21' W 009°44'1615.6
2014-Jul-28 19:33N 38°05' W 009°40'1515.3
2014-Jul-28 18:33N 37°50' W 009°36'1615.7
2014-Jul-28 17:33N 37°35' W 009°31'1716.5
2014-Jul-28 16:30N 37°18' W 009°27'1716.1
2014-Jul-28 15:25N 37°01' W 009°22'1415.6
2014-Jul-28 14:31N 36°49' W 009°14'1815.9
2014-Jul-28 13:22N 36°41' W 008°53'1515.9
2014-Jul-28 12:24N 36°36' W 008°35'1416.2
2014-Jul-28 11:31N 36°31' W 008°19'14415.6
2014-Jul-28 02:19N 36°02' W 005°24'4 0.3
2014-Jul-27 10:32N 36°04' W 005°19'46513.3
2014-Jul-25 23:32N 37°13' E 004°14'1313.5
2014-Jul-25 22:32N 37°15' E 004°30'1313.7
2014-Jul-25 21:33N 37°17' E 004°47'1413.8
2014-Jul-25 20:33N 37°19' E 005°04'2015.2
2014-Jul-25 19:15N 37°22' E 005°29'710.6
2014-Jul-25 18:33N 37°23' E 005°38'1413.6
2014-Jul-25 17:33N 37°25' E 005°55'10314.3
2014-Jul-25 10:22N 37°41' E 008°03'1414.0
2014-Jul-25 09:24N 37°43' E 008°20'1214.5
2014-Jul-25 08:33N 37°44' E 008°36'1414.2
2014-Jul-25 07:33N 37°44' E 008°53'1414.2
2014-Jul-25 06:32N 37°42' E 009°11'1414.0
2014-Jul-25 05:33N 37°41' E 009°29'1413.8
2014-Jul-25 04:33N 37°41' E 009°46'1413.8
2014-Jul-25 03:33N 37°39' E 010°04'1413.6
2014-Jul-25 02:33N 37°39' E 010°21'1414.4
2014-Jul-25 01:33N 37°35' E 010°38'1414.6
2014-Jul-25 00:33N 37°31' E 010°56'6014.6
2014-Jul-24 20:25N 37°03' E 012°04'1214.4
2014-Jul-24 19:33N 36°59' E 012°18'1413.8
2014-Jul-24 18:33N 36°55' E 012°35'1414.2
2014-Jul-24 17:33N 36°51' E 012°52'1414.4
2014-Jul-24 16:33N 36°46' E 013°09'1414.5
2014-Jul-24 15:33N 36°42' E 013°26'1414.3
2014-Jul-24 14:33N 36°37' E 013°43'1414.3
2014-Jul-24 13:33N 36°33' E 013°60'1616.3
2014-Jul-24 12:33N 36°29' E 014°19'2222.2
2014-Jul-24 11:33N 36°21' E 014°45'63615.1
2014-Jul-22 17:24N 33°03' E 027°01'  
2014-Jul-20 11:17N 34°09' E 033°56'1 1.1
2014-Jul-20 10:33N 34°10' E 033°57'2 1.9
2014-Jul-20 09:34N 34°09' E 033°55'2 1.8
2014-Jul-20 08:33N 34°08' E 033°53'2 1.8
2014-Jul-20 07:34N 34°07' E 033°51'11 4.8
2014-Jul-20 05:19N 34°16' E 033°58'7 9.2
2014-Jul-20 04:33N 34°22' E 034°02'  

Dump ship's entire track history